createdAt,value
2023-04-28T00:00:32.487Z,69.36
2023-04-28T00:01:29.171Z,69.26
2023-04-28T00:02:27.241Z,67.02
2023-04-28T00:03:24.230Z,65.90
2023-04-28T00:04:21.527Z,65.28
2023-04-28T00:05:18.846Z,66.22
2023-04-28T00:06:15.697Z,67.31
2023-04-28T00:07:12.536Z,66.59
2023-04-28T00:08:09.121Z,67.04
2023-04-28T00:09:05.865Z,67.65
2023-04-28T00:10:02.503Z,66.02
2023-04-28T00:10:59.154Z,66.21
2023-04-28T00:11:55.727Z,67.24
2023-04-28T00:12:52.331Z,67.04
2023-04-28T00:13:48.930Z,66.19
2023-04-28T00:14:45.511Z,66.94
2023-04-28T00:15:42.099Z,67.24
2023-04-28T00:16:38.851Z,66.85
2023-04-28T00:17:35.539Z,68.32
2023-04-28T00:18:33.686Z,67.80
2023-04-28T00:19:30.451Z,67.20
2023-04-28T00:20:27.097Z,67.97
2023-04-28T00:21:23.699Z,68.94
2023-04-28T00:22:20.592Z,70.41
2023-04-28T00:23:17.136Z,72.83
2023-04-28T00:24:13.907Z,74.00
2023-04-28T00:25:10.861Z,75.13
2023-04-28T00:26:07.429Z,76.02
2023-04-28T00:27:04.179Z,75.26
2023-04-28T00:28:01.709Z,72.94
2023-04-28T00:28:58.427Z,71.72
2023-04-28T00:29:55.144Z,69.94
2023-04-28T00:30:51.820Z,69.75
2023-04-28T00:31:48.441Z,69.40
2023-04-28T00:32:45.112Z,69.46
2023-04-28T00:33:43.100Z,68.57
2023-04-28T00:34:39.799Z,67.88
2023-04-28T00:35:36.494Z,67.35
2023-04-28T00:36:33.441Z,68.24
2023-04-28T00:37:30.005Z,68.87
2023-04-28T00:38:27.013Z,67.21
2023-04-28T00:39:23.593Z,70.36
2023-04-28T00:40:20.229Z,71.93
2023-04-28T00:41:16.894Z,72.79
2023-04-28T00:42:14.577Z,73.22
2023-04-28T00:43:11.196Z,73.90
2023-04-28T00:44:07.890Z,73.87
2023-04-28T00:45:07.207Z,75.21
2023-04-28T00:46:03.923Z,75.00
2023-04-28T00:47:01.144Z,75.06
2023-04-28T00:47:58.864Z,75.46
2023-04-28T00:48:56.615Z,76.23
2023-04-28T00:49:54.057Z,75.75
2023-04-28T00:50:52.044Z,75.08
2023-04-28T00:51:48.700Z,76.58
2023-04-28T00:52:45.777Z,75.71
2023-04-28T00:53:43.827Z,74.87
2023-04-28T00:54:40.508Z,73.89
2023-04-28T00:55:38.171Z,72.56
2023-04-28T00:56:35.464Z,73.57
2023-04-28T00:57:32.357Z,75.14
2023-04-28T00:58:30.448Z,72.04
2023-04-28T00:59:27.127Z,72.69
2023-04-28T01:00:24.002Z,73.92
2023-04-28T01:01:20.669Z,71.78
2023-04-28T01:02:18.556Z,72.82
2023-04-28T01:03:15.474Z,72.67
2023-04-28T01:04:12.482Z,73.09
2023-04-28T01:05:10.449Z,71.94
2023-04-28T01:06:09.139Z,69.61
2023-04-28T01:07:05.783Z,69.52
2023-04-28T01:08:03.159Z,68.03
2023-04-28T01:08:59.778Z,67.35
2023-04-28T01:09:56.797Z,67.90
2023-04-28T01:10:53.564Z,68.51
2023-04-28T01:11:50.154Z,68.93
2023-04-28T01:12:46.721Z,67.80
2023-04-28T01:13:43.328Z,69.25
2023-04-28T01:14:40.215Z,70.41
2023-04-28T01:15:37.028Z,71.91
2023-04-28T01:16:34.976Z,70.04
2023-04-28T01:17:31.735Z,71.09
2023-04-28T01:18:28.940Z,71.12
2023-04-28T01:19:26.124Z,70.47
2023-04-28T01:20:22.724Z,72.06
2023-04-28T01:21:32.559Z,72.95
2023-04-28T01:22:29.341Z,72.67
2023-04-28T01:23:26.065Z,73.89
2023-04-28T01:24:22.723Z,72.83
2023-04-28T01:25:19.309Z,74.06
2023-04-28T01:26:16.030Z,73.45
2023-04-28T01:27:12.670Z,73.76
2023-04-28T01:28:10.621Z,74.12
2023-04-28T01:29:07.216Z,73.55
2023-04-28T01:30:04.060Z,73.13
2023-04-28T01:31:00.702Z,73.32
2023-04-28T01:31:57.563Z,73.49
2023-04-28T01:32:54.344Z,72.96
2023-04-28T01:33:51.014Z,73.67
2023-04-28T01:34:47.751Z,73.10
2023-04-28T01:35:44.603Z,74.50
2023-04-28T01:36:41.431Z,73.93
2023-04-28T01:37:38.050Z,72.55
2023-04-28T01:38:34.791Z,71.94
2023-04-28T01:39:31.431Z,71.33
2023-04-28T01:40:28.144Z,72.30
2023-04-28T01:41:25.000Z,71.15
2023-04-28T01:42:21.587Z,71.15
2023-04-28T01:43:18.283Z,70.95
2023-04-28T01:44:15.292Z,72.87
2023-04-28T01:45:12.221Z,70.32
2023-04-28T01:46:08.944Z,69.48
2023-04-28T01:47:05.702Z,68.96
2023-04-28T01:48:02.374Z,70.04
2023-04-28T01:48:59.074Z,69.74
2023-04-28T01:49:55.849Z,69.39
2023-04-28T01:50:52.401Z,70.54
2023-04-28T01:51:49.199Z,70.32
2023-04-28T01:52:45.995Z,70.38
2023-04-28T01:53:42.858Z,69.64
2023-04-28T01:54:39.409Z,70.68
2023-04-28T01:55:36.140Z,70.82
2023-04-28T01:56:32.725Z,71.39
2023-04-28T01:57:29.438Z,70.86
2023-04-28T01:58:26.255Z,70.17
2023-04-28T01:59:22.946Z,70.87
2023-04-28T02:00:19.697Z,70.48
2023-04-28T02:01:16.607Z,70.14
2023-04-28T02:02:13.252Z,69.03
2023-04-28T02:03:10.076Z,68.19
2023-04-28T02:04:06.953Z,67.86
2023-04-28T02:05:03.665Z,67.66
2023-04-28T02:06:00.365Z,67.46
2023-04-28T02:06:57.003Z,67.53
2023-04-28T02:07:53.684Z,67.59
2023-04-28T02:08:50.837Z,66.79
2023-04-28T02:09:47.472Z,67.20
2023-04-28T02:10:45.038Z,67.16
2023-04-28T02:11:41.670Z,66.90
2023-04-28T02:12:38.404Z,67.29
2023-04-28T02:13:35.035Z,67.16
2023-04-28T02:14:34.680Z,67.28
2023-04-28T02:15:31.404Z,66.54
2023-04-28T02:16:28.150Z,66.77
2023-04-28T02:17:24.909Z,66.85
2023-04-28T02:18:21.624Z,66.32
2023-04-28T02:19:18.236Z,66.26
2023-04-28T02:20:14.985Z,66.91
2023-04-28T02:21:12.581Z,66.67
2023-04-28T02:22:09.185Z,66.95
2023-04-28T02:23:05.784Z,66.39
2023-04-28T02:24:02.429Z,67.80
2023-04-28T02:24:59.166Z,67.24
2023-04-28T02:26:03.738Z,67.91
2023-04-28T02:27:00.451Z,67.89
2023-04-28T02:27:57.516Z,69.15
2023-04-28T02:28:54.385Z,69.19
2023-04-28T02:29:51.750Z,68.00
2023-04-28T02:30:48.390Z,67.94
2023-04-28T02:31:45.183Z,66.49
2023-04-28T02:32:41.841Z,66.71
2023-04-28T02:33:38.866Z,66.78
2023-04-28T02:34:35.623Z,66.04
2023-04-28T02:35:32.440Z,66.46
2023-04-28T02:36:29.131Z,67.83
2023-04-28T02:37:26.374Z,66.30
2023-04-28T02:38:23.010Z,66.44
2023-04-28T02:39:21.905Z,65.37
2023-04-28T02:40:18.708Z,63.98
2023-04-28T02:41:15.690Z,66.67
2023-04-28T02:42:12.340Z,69.62
2023-04-28T02:43:08.928Z,72.99
2023-04-28T02:44:05.600Z,73.57
2023-04-28T02:45:02.182Z,73.41
2023-04-28T02:45:59.535Z,73.45
2023-04-28T02:46:56.239Z,74.29
2023-04-28T02:47:53.032Z,74.76
2023-04-28T02:48:49.593Z,74.01
2023-04-28T02:49:46.399Z,73.23
2023-04-28T02:50:42.991Z,73.58
2023-04-28T02:51:40.122Z,73.76
2023-04-28T02:52:36.958Z,74.81
2023-04-28T02:53:33.617Z,73.64
2023-04-28T02:54:30.231Z,73.55
2023-04-28T02:55:26.825Z,74.70
2023-04-28T02:56:23.497Z,75.98
2023-04-28T02:57:20.755Z,76.70
2023-04-28T02:58:18.371Z,76.02
2023-04-28T02:59:15.365Z,76.07
2023-04-28T03:00:12.677Z,75.78
2023-04-28T03:01:09.475Z,74.77
2023-04-28T03:02:06.211Z,75.22
2023-04-28T03:03:02.955Z,74.84
2023-04-28T03:04:00.413Z,74.51
2023-04-28T03:04:57.475Z,72.81
2023-04-28T03:05:56.606Z,70.18
2023-04-28T03:06:53.287Z,68.30
2023-04-28T03:07:49.969Z,68.37
2023-04-28T03:08:46.594Z,67.09
2023-04-28T03:09:43.241Z,66.27
2023-04-28T03:10:39.977Z,66.10
2023-04-28T03:11:37.169Z,65.99
2023-04-28T03:12:33.763Z,65.93
2023-04-28T03:13:30.448Z,65.43
2023-04-28T03:14:27.466Z,65.37
2023-04-28T03:15:24.319Z,64.52
2023-04-28T03:16:21.239Z,65.03
2023-04-28T03:17:18.281Z,65.33
2023-04-28T03:18:14.932Z,64.99
2023-04-28T03:19:11.649Z,64.53
2023-04-28T03:20:09.659Z,64.66
2023-04-28T03:21:06.560Z,65.32
2023-04-28T03:22:03.264Z,65.03
2023-04-28T03:22:59.986Z,65.62
2023-04-28T03:23:56.689Z,64.98
2023-04-28T03:24:53.384Z,65.44
2023-04-28T03:25:50.099Z,65.42
2023-04-28T03:26:46.747Z,65.43
2023-04-28T03:27:43.356Z,65.50
2023-04-28T03:28:39.944Z,65.54
2023-04-28T03:29:36.542Z,65.53
2023-04-28T03:30:33.235Z,65.65
2023-04-28T03:31:29.833Z,65.25
2023-04-28T03:32:26.837Z,65.18
2023-04-28T03:33:23.530Z,65.82
2023-04-28T03:34:20.113Z,64.92
2023-04-28T03:35:19.577Z,65.40
2023-04-28T03:36:16.660Z,66.60
2023-04-28T03:37:13.986Z,66.48
2023-04-28T03:38:10.646Z,66.78
2023-04-28T03:39:07.301Z,67.05
2023-04-28T03:40:04.197Z,67.12
2023-04-28T03:41:00.874Z,66.95
2023-04-28T03:41:57.556Z,67.28
2023-04-28T03:42:54.410Z,66.84
2023-04-28T03:43:52.025Z,67.00
2023-04-28T03:44:48.624Z,66.85
2023-04-28T03:45:45.351Z,67.81
2023-04-28T03:46:42.101Z,68.68
2023-04-28T03:47:38.962Z,70.07
2023-04-28T03:48:35.561Z,69.78
2023-04-28T03:49:32.162Z,69.89
2023-04-28T03:50:28.941Z,70.53
2023-04-28T03:51:25.866Z,68.59
2023-04-28T03:52:22.431Z,69.29
2023-04-28T03:53:19.002Z,69.53
2023-04-28T03:54:15.882Z,68.04
2023-04-28T03:55:12.560Z,66.08
2023-04-28T03:56:09.233Z,67.06
2023-04-28T03:57:05.911Z,68.16
2023-04-28T03:58:02.606Z,66.46
2023-04-28T03:58:59.214Z,66.42
2023-04-28T03:59:55.828Z,67.92
2023-04-28T04:00:52.506Z,68.36
2023-04-28T04:01:49.174Z,67.84
2023-04-28T04:02:46.100Z,67.45
2023-04-28T04:03:43.126Z,67.31
2023-04-28T04:04:39.982Z,68.49
2023-04-28T04:05:36.734Z,67.07
2023-04-28T04:06:34.026Z,66.87
2023-04-28T04:07:30.724Z,66.58
2023-04-28T04:08:27.431Z,66.15
2023-04-28T04:09:24.121Z,66.08
2023-04-28T04:10:20.721Z,65.57
2023-04-28T04:11:17.624Z,65.51
2023-04-28T04:12:14.219Z,64.27
2023-04-28T04:13:10.976Z,64.70
2023-04-28T04:14:07.537Z,64.69
2023-04-28T04:15:04.578Z,63.55
2023-04-28T04:16:01.335Z,63.76
2023-04-28T04:16:58.045Z,63.11
2023-04-28T04:17:54.768Z,64.45
2023-04-28T04:18:51.427Z,65.00
2023-04-28T04:19:48.110Z,63.51
2023-04-28T04:20:44.818Z,64.17
2023-04-28T04:21:41.514Z,64.09
2023-04-28T04:22:38.174Z,63.76
2023-04-28T04:23:34.883Z,67.60
2023-04-28T04:24:31.502Z,68.08
2023-04-28T04:25:28.371Z,67.93
2023-04-28T04:26:25.088Z,69.83
2023-04-28T04:27:21.806Z,69.15
2023-04-28T04:28:18.478Z,70.59
2023-04-28T04:29:15.080Z,70.93
2023-04-28T04:30:12.122Z,70.39
2023-04-28T04:31:08.877Z,70.34
2023-04-28T04:32:05.540Z,68.94
2023-04-28T04:33:02.345Z,68.76
2023-04-28T04:33:59.068Z,68.90
2023-04-28T04:34:55.921Z,69.13
2023-04-28T04:35:53.078Z,67.14
2023-04-28T04:36:49.707Z,69.13
2023-04-28T04:37:46.323Z,68.03
2023-04-28T04:38:43.078Z,67.58
2023-04-28T04:39:39.811Z,68.85
2023-04-28T04:40:36.827Z,65.55
2023-04-28T04:41:33.567Z,65.57
2023-04-28T04:42:30.169Z,65.09
2023-04-28T04:43:26.866Z,64.60
2023-04-28T04:44:23.509Z,64.22
2023-04-28T04:45:20.132Z,63.14
2023-04-28T04:46:16.856Z,64.33
2023-04-28T04:47:13.483Z,63.65
2023-04-28T04:48:10.104Z,63.51
2023-04-28T04:49:07.644Z,63.11
2023-04-28T04:50:04.589Z,62.01
2023-04-28T04:51:01.246Z,62.48
2023-04-28T04:51:57.856Z,63.49
2023-04-28T04:52:56.699Z,63.35
2023-04-28T04:53:53.350Z,63.07
2023-04-28T04:54:49.985Z,64.01
2023-04-28T04:55:47.275Z,64.25
2023-04-28T04:56:43.893Z,61.79
2023-04-28T04:57:40.487Z,61.87
2023-04-28T04:58:37.148Z,62.81
2023-04-28T04:59:33.757Z,63.16
2023-04-28T05:00:30.374Z,62.53
2023-04-28T05:01:27.103Z,62.80
2023-04-28T05:02:23.789Z,63.55
2023-04-28T05:03:20.817Z,63.54
2023-04-28T05:04:18.048Z,63.68
2023-04-28T05:05:21.161Z,63.58
2023-04-28T05:06:19.362Z,62.70
2023-04-28T05:07:15.940Z,63.06
2023-04-28T05:08:12.904Z,63.24
2023-04-28T05:09:09.704Z,64.80
2023-04-28T05:10:07.504Z,64.97
2023-04-28T05:11:04.925Z,65.29
2023-04-28T05:12:01.719Z,65.32
2023-04-28T05:12:58.291Z,65.26
2023-04-28T05:13:54.916Z,66.74
2023-04-28T05:14:51.577Z,66.10
2023-04-28T05:15:48.143Z,66.18
2023-04-28T05:16:44.946Z,65.31
2023-04-28T05:17:41.741Z,64.10
2023-04-28T05:18:38.513Z,64.11
2023-04-28T05:19:35.467Z,63.65
2023-04-28T05:20:32.404Z,65.45
2023-04-28T05:21:29.073Z,65.69
2023-04-28T05:22:26.420Z,65.34
2023-04-28T05:23:23.565Z,66.07
2023-04-28T05:24:23.784Z,65.96
2023-04-28T05:25:20.442Z,64.41
2023-04-28T05:26:17.135Z,63.94
2023-04-28T05:27:13.733Z,65.09
2023-04-28T05:28:11.767Z,63.51
2023-04-28T05:29:08.562Z,64.46
2023-04-28T05:30:10.306Z,64.90
2023-04-28T05:31:07.976Z,64.60
2023-04-28T05:32:04.853Z,66.06
2023-04-28T05:33:01.681Z,66.92
2023-04-28T05:33:58.984Z,66.95
2023-04-28T05:34:55.728Z,65.57
2023-04-28T05:35:52.421Z,64.94
2023-04-28T05:36:49.112Z,65.21
2023-04-28T05:37:45.754Z,65.20
2023-04-28T05:38:43.039Z,65.12
2023-04-28T05:39:39.760Z,65.44
2023-04-28T05:40:36.372Z,63.25
2023-04-28T05:41:34.257Z,64.05
2023-04-28T05:42:31.034Z,65.47
2023-04-28T05:43:27.683Z,65.59
2023-04-28T05:44:24.644Z,61.97
2023-04-28T05:45:21.645Z,62.16
2023-04-28T05:46:30.067Z,62.22
2023-04-28T05:47:27.957Z,59.76
2023-04-28T05:48:24.799Z,59.66
2023-04-28T05:49:21.404Z,58.75
2023-04-28T05:50:18.906Z,59.82
2023-04-28T05:51:15.653Z,58.97
2023-04-28T05:52:12.452Z,58.98
2023-04-28T05:53:09.197Z,58.52
2023-04-28T05:54:06.153Z,57.97
2023-04-28T05:55:02.865Z,58.99
2023-04-28T05:55:59.511Z,59.49
2023-04-28T05:56:56.362Z,56.79
2023-04-28T05:57:54.559Z,57.33
2023-04-28T05:58:51.430Z,57.15
2023-04-28T05:59:48.116Z,57.62
2023-04-28T06:00:44.789Z,57.99
2023-04-28T06:01:41.350Z,57.63
2023-04-28T06:02:38.056Z,58.03
2023-04-28T06:03:35.066Z,59.09
2023-04-28T06:04:32.205Z,59.31
2023-04-28T06:05:29.550Z,59.40
2023-04-28T06:06:27.838Z,59.73
2023-04-28T06:07:24.531Z,58.98
2023-04-28T06:08:21.191Z,58.93
2023-04-28T06:09:19.254Z,59.56
2023-04-28T06:10:16.241Z,59.75
2023-04-28T06:11:12.832Z,58.16
2023-04-28T06:12:09.483Z,58.81
2023-04-28T06:13:06.634Z,58.31
2023-04-28T06:14:03.205Z,59.32
2023-04-28T06:14:59.838Z,58.71
2023-04-28T06:15:56.927Z,58.59
2023-04-28T06:16:53.600Z,56.94
2023-04-28T06:17:50.232Z,55.88
2023-04-28T06:18:48.526Z,56.68
2023-04-28T06:19:46.363Z,57.43
2023-04-28T06:20:43.028Z,57.93
2023-04-28T06:21:39.596Z,58.10
2023-04-28T06:22:36.984Z,57.24
2023-04-28T06:23:33.628Z,58.59
2023-04-28T06:24:30.194Z,57.71
2023-04-28T06:25:26.944Z,58.16
2023-04-28T06:26:24.274Z,57.73
2023-04-28T06:27:20.975Z,57.79
2023-04-28T06:28:17.586Z,58.14
2023-04-28T06:29:14.201Z,58.66
2023-04-28T06:30:13.516Z,59.78
2023-04-28T06:31:10.160Z,59.55
2023-04-28T06:32:06.741Z,59.10
2023-04-28T06:33:03.574Z,59.73
2023-04-28T06:34:00.362Z,59.45
2023-04-28T06:34:58.413Z,58.04
2023-04-28T06:35:55.394Z,57.31
2023-04-28T06:36:51.998Z,56.89
2023-04-28T06:37:48.555Z,57.13
2023-04-28T06:38:45.954Z,56.77
2023-04-28T06:39:42.627Z,56.46
2023-04-28T06:40:40.859Z,56.94
2023-04-28T06:41:37.425Z,56.68
2023-04-28T06:42:34.028Z,56.89
2023-04-28T06:43:30.692Z,57.24
2023-04-28T06:44:27.326Z,55.99
2023-04-28T06:45:24.073Z,55.59
2023-04-28T06:46:20.819Z,55.47
2023-04-28T06:47:17.550Z,55.57
2023-04-28T06:48:14.219Z,53.39
2023-04-28T06:49:10.898Z,53.71
2023-04-28T06:50:08.210Z,54.86
2023-04-28T06:51:05.804Z,54.99
2023-04-28T06:52:02.432Z,54.84
2023-04-28T06:52:59.098Z,54.55
2023-04-28T06:53:55.814Z,54.52
2023-04-28T06:54:52.530Z,53.53
2023-04-28T06:55:49.095Z,54.35
2023-04-28T06:56:45.677Z,54.16
2023-04-28T06:57:42.631Z,52.16
2023-04-28T06:58:39.380Z,52.21
2023-04-28T06:59:36.088Z,52.78
2023-04-28T07:00:32.994Z,52.96
2023-04-28T07:01:29.629Z,52.57
2023-04-28T07:02:27.244Z,53.46
2023-04-28T07:03:24.193Z,53.11
2023-04-28T07:04:21.318Z,52.44
2023-04-28T07:05:18.713Z,51.99
2023-04-28T07:06:16.715Z,50.07
2023-04-28T07:07:13.341Z,51.69
2023-04-28T07:08:10.149Z,51.66
2023-04-28T07:09:06.820Z,51.80
2023-04-28T07:10:04.386Z,49.85
2023-04-28T07:11:04.752Z,51.19
2023-04-28T07:12:01.772Z,49.12
2023-04-28T07:12:59.295Z,49.33
2023-04-28T07:13:56.139Z,50.62
2023-04-28T07:14:52.871Z,50.81
2023-04-28T07:15:49.562Z,49.76
2023-04-28T07:16:46.360Z,49.84
2023-04-28T07:17:43.373Z,49.16
2023-04-28T07:18:40.238Z,52.03
2023-04-28T07:20:33.504Z,50.40
2023-04-28T07:21:30.156Z,49.94
2023-04-28T07:22:26.882Z,49.21
2023-04-28T07:23:23.591Z,49.38
2023-04-28T07:24:20.282Z,48.77
2023-04-28T07:25:19.072Z,49.63
2023-04-28T07:26:18.832Z,47.92
2023-04-28T07:27:15.543Z,50.60
2023-04-28T07:28:13.985Z,49.03
2023-04-28T07:29:13.488Z,48.90
2023-04-28T07:30:25.959Z,48.71
2023-04-28T07:31:23.723Z,49.43
2023-04-28T07:32:20.441Z,48.61
2023-04-28T07:33:17.132Z,48.84
2023-04-28T07:34:13.797Z,48.26
2023-04-28T07:35:10.537Z,50.04
2023-04-28T07:36:07.666Z,49.14
2023-04-28T07:37:04.835Z,49.20
2023-04-28T07:38:02.506Z,48.18
2023-04-28T07:39:01.007Z,49.20
2023-04-28T07:39:57.736Z,46.69
2023-04-28T07:40:54.402Z,47.45
2023-04-28T07:41:51.103Z,46.42
2023-04-28T07:42:48.027Z,48.46
2023-04-28T07:43:44.703Z,47.49
2023-04-28T07:44:41.645Z,48.18
2023-04-28T07:45:40.006Z,47.66
2023-04-28T07:46:36.888Z,47.91
2023-04-28T07:47:33.703Z,47.23
2023-04-28T07:48:30.513Z,46.81
2023-04-28T07:49:28.828Z,48.38
2023-04-28T07:50:25.400Z,46.53
2023-04-28T07:51:22.128Z,47.55
2023-04-28T07:52:18.739Z,46.17
2023-04-28T07:53:15.365Z,45.33
2023-04-28T07:54:12.064Z,47.31
2023-04-28T07:55:08.831Z,47.36
2023-04-28T07:56:05.897Z,48.12
2023-04-28T07:57:06.224Z,47.90
2023-04-28T07:58:02.993Z,45.24
2023-04-28T07:58:59.724Z,43.63
2023-04-28T07:59:56.582Z,45.59
2023-04-28T08:00:53.144Z,48.24
2023-04-28T08:01:49.925Z,46.54
2023-04-28T08:02:46.943Z,46.30
2023-04-28T08:03:43.958Z,45.46
2023-04-28T08:04:41.561Z,46.67
2023-04-28T08:05:39.690Z,46.11
2023-04-28T08:06:36.621Z,45.60
2023-04-28T08:07:33.389Z,44.98
2023-04-28T08:08:30.802Z,45.76
2023-04-28T08:09:27.440Z,47.84
2023-04-28T08:10:24.197Z,47.23
2023-04-28T08:11:22.453Z,46.33
2023-04-28T08:12:19.041Z,44.34
2023-04-28T08:13:16.746Z,43.76
2023-04-28T08:14:14.067Z,43.78
2023-04-28T08:15:11.409Z,43.98
2023-04-28T08:16:08.546Z,43.55
2023-04-28T08:17:05.184Z,43.63
2023-04-28T08:18:02.022Z,43.15
2023-04-28T08:18:59.822Z,43.55
2023-04-28T08:19:56.674Z,46.53
2023-04-28T08:20:53.424Z,44.87
2023-04-28T08:21:50.014Z,43.84
2023-04-28T08:22:46.896Z,44.22
2023-04-28T08:23:43.553Z,44.26
2023-04-28T08:24:40.572Z,43.19
2023-04-28T08:25:37.258Z,43.53
2023-04-28T08:26:34.123Z,44.11
2023-04-28T08:27:31.172Z,45.13
2023-04-28T08:28:28.195Z,42.07
2023-04-28T08:29:26.091Z,43.41
2023-04-28T08:30:22.788Z,43.93
2023-04-28T08:31:19.417Z,44.06
2023-04-28T08:32:16.306Z,42.75
2023-04-28T08:33:12.916Z,42.39
2023-04-28T08:34:09.736Z,44.28
2023-04-28T08:35:07.175Z,42.62
2023-04-28T08:36:04.806Z,41.84
2023-04-28T08:37:01.821Z,43.02
2023-04-28T08:37:58.852Z,42.36
2023-04-28T08:38:55.627Z,42.38
2023-04-28T08:40:00.011Z,40.11
2023-04-28T08:40:56.793Z,42.10
2023-04-28T08:41:53.982Z,44.58
2023-04-28T08:42:51.155Z,43.05
2023-04-28T08:43:48.550Z,42.70
2023-04-28T08:44:46.622Z,42.20
2023-04-28T08:45:45.640Z,43.50
2023-04-28T08:46:44.362Z,43.84
2023-04-28T08:47:46.375Z,43.73
2023-04-28T08:48:48.787Z,41.38
2023-04-28T08:49:47.177Z,42.63
2023-04-28T08:50:47.702Z,41.02
2023-04-28T08:51:53.684Z,42.06
2023-04-28T08:52:52.443Z,40.88
2023-04-28T08:54:53.357Z,41.97
2023-04-28T08:55:54.732Z,43.21
2023-04-28T08:56:52.224Z,41.84
2023-04-28T08:57:52.286Z,41.32
2023-04-28T08:58:50.593Z,41.01
2023-04-28T08:59:47.653Z,40.40
2023-04-28T09:00:44.376Z,39.39
2023-04-28T09:01:41.286Z,39.97
2023-04-28T09:02:42.102Z,39.90
2023-04-28T09:03:39.245Z,43.48
2023-04-28T09:04:36.640Z,41.64
2023-04-28T09:05:33.451Z,40.81
2023-04-28T09:06:37.510Z,38.97
2023-04-28T09:07:34.510Z,40.29
2023-04-28T09:08:31.283Z,41.58
2023-04-28T09:09:32.576Z,40.35
2023-04-28T09:10:31.703Z,41.44
2023-04-28T09:11:28.593Z,39.50
2023-04-28T09:12:36.518Z,39.02
2023-04-28T09:13:33.448Z,39.85
2023-04-28T09:14:35.025Z,39.85
2023-04-28T09:15:41.558Z,38.92
2023-04-28T09:16:44.075Z,40.48
2023-04-28T09:17:51.304Z,40.62
2023-04-28T09:19:06.519Z,39.05
2023-04-28T09:20:04.479Z,39.58
2023-04-28T09:21:05.488Z,40.08
2023-04-28T09:22:13.676Z,41.08
2023-04-28T09:23:21.206Z,38.69
2023-04-28T09:24:31.521Z,39.91
2023-04-28T09:25:28.191Z,39.74
2023-04-28T09:26:25.201Z,39.52
2023-04-28T09:27:28.112Z,38.54
2023-04-28T09:28:25.027Z,39.58
2023-04-28T09:29:21.693Z,39.33
2023-04-28T09:30:18.714Z,39.63
2023-04-28T09:31:24.502Z,38.95
2023-04-28T09:32:23.217Z,38.52
2023-04-28T09:33:21.818Z,40.52
2023-04-28T09:34:19.042Z,38.77
2023-04-28T09:35:16.147Z,39.67
2023-04-28T09:36:13.059Z,38.96
2023-04-28T09:37:16.956Z,37.60
2023-04-28T09:38:13.677Z,37.80
2023-04-28T09:39:10.313Z,40.13
2023-04-28T09:40:09.444Z,39.43
2023-04-28T09:41:06.152Z,39.90
2023-04-28T09:42:04.593Z,37.47
2023-04-28T09:43:11.718Z,40.05
2023-04-28T09:44:21.860Z,40.93
2023-04-28T09:45:19.025Z,39.33
2023-04-28T09:46:29.061Z,38.40
2023-04-28T09:47:25.879Z,39.04
2023-04-28T09:48:36.355Z,39.67
2023-04-28T09:49:33.066Z,37.33
2023-04-28T09:50:40.167Z,37.85
2023-04-28T09:51:37.052Z,38.44
2023-04-28T09:52:35.049Z,39.46
2023-04-28T09:53:33.039Z,38.00
2023-04-28T09:54:31.241Z,35.14
2023-04-28T09:55:28.603Z,36.02
2023-04-28T09:56:27.924Z,37.78
2023-04-28T09:57:24.833Z,37.84
2023-04-28T09:58:22.619Z,39.39
2023-04-28T09:59:19.364Z,37.46
2023-04-28T10:00:17.115Z,39.11
2023-04-28T10:01:14.736Z,37.29
2023-04-28T10:02:28.780Z,38.60
2023-04-28T10:03:31.003Z,37.18
2023-04-28T10:04:31.583Z,37.79
2023-04-28T10:05:29.074Z,37.97
2023-04-28T10:06:27.963Z,37.06
2023-04-28T10:07:25.149Z,37.11
2023-04-28T10:08:23.516Z,37.80
2023-04-28T10:09:26.621Z,38.85
2023-04-28T10:10:25.260Z,37.81
2023-04-28T10:11:22.830Z,37.93
2023-04-28T10:12:22.644Z,36.97
2023-04-28T10:13:20.818Z,37.44
2023-04-28T10:14:17.984Z,37.40
2023-04-28T10:15:14.772Z,38.26
2023-04-28T10:16:12.137Z,38.51
2023-04-28T10:17:08.889Z,40.58
2023-04-28T10:18:06.452Z,38.83
2023-04-28T10:19:03.479Z,38.72
2023-04-28T10:20:00.492Z,39.10
2023-04-28T10:21:00.344Z,38.19
2023-04-28T10:22:29.482Z,37.99
2023-04-28T10:23:36.695Z,37.71
2023-04-28T10:24:33.307Z,38.41
2023-04-28T10:25:36.668Z,39.34
2023-04-28T10:27:02.097Z,38.44
2023-04-28T10:28:00.218Z,38.36
2023-04-28T10:28:57.958Z,36.27
2023-04-28T10:29:54.645Z,37.39
2023-04-28T10:31:16.964Z,38.83
2023-04-28T10:32:23.525Z,40.06
2023-04-28T10:33:20.298Z,37.31
2023-04-28T10:34:24.362Z,39.25
2023-04-28T10:35:36.481Z,38.94
2023-04-28T10:36:54.926Z,38.53
2023-04-28T10:38:05.710Z,39.35
2023-04-28T10:39:10.881Z,36.44
2023-04-28T10:40:36.073Z,38.69
2023-04-28T10:41:33.267Z,39.21
2023-04-28T10:42:52.672Z,38.78
2023-04-28T10:43:50.449Z,39.41
2023-04-28T10:44:47.087Z,37.99
2023-04-28T10:45:50.334Z,38.59
2023-04-28T10:47:08.106Z,39.69
2023-04-28T10:48:06.394Z,36.29
2023-04-28T10:49:03.076Z,37.79
2023-04-28T10:50:11.364Z,38.24
2023-04-28T10:51:09.429Z,36.12
2023-04-28T10:52:40.816Z,37.77
2023-04-28T10:53:47.107Z,37.72
2023-04-28T10:55:22.814Z,38.63
2023-04-28T10:56:21.577Z,36.24
2023-04-28T10:57:19.168Z,36.74
2023-04-28T10:58:15.906Z,37.17
2023-04-28T10:59:27.410Z,37.94
2023-04-28T11:00:29.223Z,39.45
2023-04-28T11:01:32.053Z,37.88
2023-04-28T11:02:43.837Z,36.85
2023-04-28T11:03:47.815Z,37.85
2023-04-28T11:05:10.812Z,38.82
2023-04-28T11:06:29.234Z,38.39
2023-04-28T11:07:26.011Z,37.24
2023-04-28T11:08:25.292Z,36.18
2023-04-28T11:09:22.031Z,38.91
2023-04-28T11:10:18.689Z,37.18
2023-04-28T11:11:20.779Z,37.16
2023-04-28T11:12:19.207Z,38.11
2023-04-28T11:13:34.551Z,38.35
2023-04-28T11:14:35.628Z,37.04
2023-04-28T11:15:32.541Z,37.13
2023-04-28T11:16:29.843Z,37.74
2023-04-28T11:17:40.460Z,36.32
2023-04-28T11:18:55.476Z,36.37
2023-04-28T11:19:56.995Z,36.15
2023-04-28T11:20:57.942Z,34.94
2023-04-28T11:21:56.703Z,38.41
2023-04-28T11:22:53.494Z,35.04
2023-04-28T11:23:50.590Z,36.16
2023-04-28T11:25:03.380Z,37.23
2023-04-28T11:25:59.970Z,36.95
2023-04-28T11:26:57.856Z,37.19
2023-04-28T11:28:04.446Z,36.08
2023-04-28T11:29:01.154Z,38.07
2023-04-28T11:29:57.774Z,36.60
2023-04-28T11:31:11.410Z,36.97
2023-04-28T11:32:10.228Z,37.63
2023-04-28T11:33:07.801Z,36.64
2023-04-28T11:34:19.580Z,36.88
2023-04-28T11:35:16.392Z,37.02
2023-04-28T11:36:36.744Z,38.17
2023-04-28T11:37:33.432Z,34.43
2023-04-28T11:38:30.181Z,36.40
2023-04-28T11:39:29.372Z,37.20
2023-04-28T11:40:26.181Z,37.05
2023-04-28T11:41:23.357Z,38.01
2023-04-28T11:42:20.001Z,37.54
2023-04-28T11:43:16.790Z,36.90
2023-04-28T11:44:15.086Z,37.05
2023-04-28T11:45:12.941Z,37.12
2023-04-28T11:46:09.687Z,36.98
2023-04-28T11:47:07.485Z,34.88
2023-04-28T11:48:21.322Z,36.57
2023-04-28T11:49:18.914Z,36.48
2023-04-28T11:50:16.169Z,37.62
2023-04-28T11:51:35.138Z,38.17
2023-04-28T11:52:32.390Z,34.96
2023-04-28T11:53:45.261Z,37.91
2023-04-28T11:54:44.758Z,36.58
2023-04-28T11:55:41.447Z,36.00
2023-04-28T11:56:39.655Z,36.27
2023-04-28T11:57:36.955Z,36.32
2023-04-28T11:58:33.522Z,36.55
2023-04-28T11:59:33.734Z,35.61
2023-04-28T12:00:30.679Z,36.62
2023-04-28T12:01:27.300Z,35.11
2023-04-28T12:02:29.757Z,37.14
2023-04-28T12:03:26.915Z,37.56
2023-04-28T12:04:40.337Z,34.23
2023-04-28T12:05:45.032Z,35.96
2023-04-28T12:06:42.254Z,35.18
2023-04-28T12:07:44.262Z,36.22
2023-04-28T12:08:41.100Z,36.01
2023-04-28T12:09:45.828Z,35.80
2023-04-28T12:10:42.549Z,35.25
2023-04-28T12:11:39.159Z,34.82
2023-04-28T12:12:48.931Z,36.21
2023-04-28T12:14:06.965Z,34.05
2023-04-28T12:15:06.123Z,35.33
2023-04-28T12:16:05.982Z,34.28
2023-04-28T12:17:02.881Z,34.82
2023-04-28T12:18:10.701Z,35.47
2023-04-28T12:19:10.455Z,37.34
2023-04-28T12:20:11.979Z,36.59
2023-04-28T12:21:21.430Z,35.35
2023-04-28T12:22:18.036Z,35.86
2023-04-28T12:23:14.643Z,36.27
2023-04-28T12:24:29.653Z,36.39
2023-04-28T12:25:26.777Z,35.34
2023-04-28T12:26:26.175Z,35.38
2023-04-28T12:27:24.977Z,33.10
2023-04-28T12:28:21.647Z,34.60
2023-04-28T12:29:39.490Z,37.03
2023-04-28T12:30:42.693Z,34.73
2023-04-28T12:31:53.114Z,35.60
2023-04-28T12:32:50.375Z,35.81
2023-04-28T12:33:47.023Z,35.86
2023-04-28T12:34:46.088Z,33.40
2023-04-28T12:35:42.834Z,35.94